Time;durP1;ratioP1;P1;durP2;ratioP2;P2;SDS_P1;SDS_P2;PMS_P1;PMS_P2;Temp;Humidity;BMP_temperature;BMP_pressure;BME280_temperature;BME280_humidity;BME280_pressure;Samples;Min_cycle;Max_cycle;Signal;HPM_P1;HPM_P2
2023/05/16 00:00:42;;;;;;;18.50;2.45;;;;;;;;;;4973933;28;20392;-76
2023/05/16 00:03:10;;;;;;;17.95;2.05;;;;;;;;;;4988516;28;20085;-80
2023/05/16 00:05:36;;;;;;;19.75;2.90;;;;;;;;;;4979560;28;20133;-77
2023/05/16 00:08:03;;;;;;;14.85;1.60;;;;;;;;;;4985891;28;20057;-80
2023/05/16 00:10:29;;;;;;;15.48;2.38;;;;;;;;;;4995101;28;20057;-75
2023/05/16 00:12:56;;;;;;;15.68;1.35;;;;;;;;;;4998214;28;20084;-77
2023/05/16 00:15:23;;;;;;;13.90;1.60;;;;;;;;;;4996676;28;20104;-84
2023/05/16 00:17:50;;;;;;;13.60;1.10;;;;;;;;;;4996180;28;20058;-78
2023/05/16 00:20:17;;;;;;;19.30;2.47;;;;;;;;;;4993676;28;20061;-84
2023/05/16 00:22:45;;;;;;;14.80;1.63;;;;;;;;;;4994132;28;20069;-79
2023/05/16 00:25:11;;;;;;;12.60;1.10;;;;;;;;;;4993161;28;20061;-77
2023/05/16 00:27:37;;;;;;;8.73;0.75;;;;;;;;;;4996217;28;20129;-79
2023/05/16 00:30:03;;;;;;;15.25;2.30;;;;;;;;;;4992413;28;20049;-76
2023/05/16 00:32:29;;;;;;;12.32;1.20;;;;;;;;;;4972483;28;20107;-77
2023/05/16 00:34:55;;;;;;;18.25;1.38;;;;;;;;;;4992748;28;20066;-81
2023/05/16 00:37:22;;;;;;;14.15;1.50;;;;;;;;;;4996883;28;20054;-79
2023/05/16 00:39:48;;;;;;;13.32;2.42;;;;;;;;;;4993027;28;20652;-79
2023/05/16 00:42:14;;;;;;;9.00;1.15;;;;;;;;;;4989988;28;20061;-80
2023/05/16 00:44:40;;;;;;;13.40;1.60;;;;;;;;;;4992113;28;20050;-77
2023/05/16 00:47:07;;;;;;;13.60;1.90;;;;;;;;;;4987211;28;20818;-81
2023/05/16 00:49:33;;;;;;;11.65;1.95;;;;;;;;;;4990332;28;20049;-77
2023/05/16 00:51:59;;;;;;;9.77;1.13;;;;;;;;;;4944477;28;20114;-78
2023/05/16 00:54:28;;;;;;;14.38;1.20;;;;;;;;;;4966273;28;20208;-79
2023/05/16 00:56:55;;;;;;;13.48;2.45;;;7.40;99.90;;;;;;4992655;28;20050;-76
2023/05/16 00:59:21;;;;;;;20.67;3.90;;;;;;;;;;4977551;28;20133;-77
2023/05/16 01:01:48;;;;;;;11.05;2.70;;;;;;;;;;4994127;28;20676;-77
2023/05/16 01:04:14;;;;;;;17.15;1.92;;;;;;;;;;4991039;28;20061;-77
2023/05/16 01:06:41;;;;;;;17.90;1.80;;;;;;;;;;4993328;28;20049;-77
2023/05/16 01:09:08;;;;;;;14.85;1.75;;;;;;;;;;4976613;28;20080;-77
2023/05/16 01:12:26;;;;;;;15.48;2.40;;;7.30;99.90;;;;;;4993375;28;20050;-77
2023/05/16 01:15:07;;;;;;;12.32;1.88;;;7.20;99.90;;;;;;4963405;28;20065;-79
2023/05/16 01:17:33;;;;;;;11.48;1.60;;;;;;;;;;4992284;28;20041;-79
2023/05/16 01:20:15;;;;;;;16.95;1.77;;;7.10;99.90;;;;;;4992571;28;20099;-78
2023/05/16 01:23:07;;;;;;;9.35;0.95;;;7.00;99.90;;;;;;4979801;28;20062;-77
2023/05/16 01:25:45;;;;;;;15.50;1.10;;;6.90;99.90;;;;;;4992639;28;20093;-79
2023/05/16 01:28:14;;;;;;;11.15;1.48;;;6.80;99.90;;;;;;4990848;28;20329;-80
2023/05/16 01:30:41;;;;;;;11.93;1.15;;;;;;;;;;4994826;28;20056;-76
2023/05/16 01:33:07;;;;;;;14.18;2.17;;;;;;;;;;4995721;28;20045;-79
2023/05/16 01:35:39;;;;;;;13.13;1.40;;;6.60;99.90;;;;;;4992230;28;20463;-80
2023/05/16 01:38:21;;;;;;;10.15;0.80;;;10.10;99.90;;;;;;4992517;28;20340;-79
2023/05/16 01:40:58;;;;;;;10.10;1.08;;;6.50;99.90;;;;;;4966292;28;20888;-77
2023/05/16 01:43:36;;;;;;;10.43;1.45;;;6.40;99.90;;;;;;4991900;28;20211;-81
2023/05/16 01:46:08;;;;;;;14.30;0.98;;;8.90;99.90;;;;;;4991688;28;20564;-80
2023/05/16 01:48:43;;;;;;;15.55;1.27;;;6.30;99.90;;;;;;4977616;28;20474;-77
2023/05/16 01:51:11;;;;;;;18.60;1.33;;;6.30;99.90;;;;;;4991384;28;20050;-79
2023/05/16 01:53:38;;;;;;;7.40;1.50;;;6.20;99.90;;;;;;4993672;28;20049;-79
2023/05/16 01:56:06;;;;;;;19.63;1.48;;;6.10;99.90;;;;;;4994401;28;20054;-79
2023/05/16 01:58:35;;;;;;;15.68;1.65;;;6.10;99.90;;;;;;4992809;28;20053;-79
2023/05/16 02:01:02;;;;;;;8.63;1.15;;;6.00;99.90;;;;;;4993238;28;20100;-79
2023/05/16 02:03:29;;;;;;;14.25;0.93;;;5.90;99.90;;;;;;4977843;28;20050;-76
2023/05/16 02:05:56;;;;;;;10.07;0.60;;;;;;;;;;4994073;28;20108;-80
2023/05/16 02:08:22;;;;;;;10.73;0.80;;;;;;;;;;4995285;28;20057;-80
2023/05/16 02:10:48;;;;;;;14.32;1.10;;;;;;;;;;4991528;28;20055;-79
2023/05/16 02:13:14;;;;;;;13.93;1.30;;;;;;;;;;4991882;28;20827;-79
2023/05/16 02:15:40;;;;;;;8.00;0.90;;;;;;;;;;4988657;28;20057;-79
2023/05/16 02:18:06;;;;;;;16.30;1.85;;;;;;;;;;4993157;28;20056;-79
2023/05/16 02:20:32;;;;;;;9.68;0.93;;;;;;;;;;4992956;28;20046;-77
2023/05/16 02:22:59;;;;;;;14.70;1.65;;;;;;;;;;4976359;28;20144;-79
2023/05/16 02:25:25;;;;;;;12.88;1.10;;;;;;;;;;4994226;28;20498;-78
2023/05/16 02:27:51;;;;;;;13.00;1.38;;;;;;;;;;4992114;28;20065;-77
2023/05/16 02:30:17;;;;;;;10.57;1.17;;;;;;;;;;4991976;28;20372;-78
2023/05/16 02:32:43;;;;;;;12.10;1.10;;;;;;;;;;4990741;28;20441;-80
2023/05/16 02:35:10;;;;;;;9.77;1.00;;;;;;;;;;4990518;28;20042;-76
2023/05/16 02:37:36;;;;;;;9.63;1.30;;;;;;;;;;4989305;28;20050;-78
2023/05/16 02:40:06;;;;;;;12.93;2.50;;;5.30;99.90;;;;;;4979245;28;20050;-78
2023/05/16 02:42:32;;;;;;;7.45;0.95;;;;;;;;;;4992969;28;20120;-78
2023/05/16 02:44:58;;;;;;;13.82;1.60;;;;;;;;;;4990824;28;20084;-78
2023/05/16 02:47:25;;;;;;;13.20;2.00;;;;;;;;;;4989123;28;20053;-80
2023/05/16 02:49:51;;;;;;;8.38;0.70;;;;;;;;;;4994456;28;20526;-79
2023/05/16 02:52:18;;;;;;;12.35;1.10;;;;;;;;;;4992215;28;20056;-79
2023/05/16 02:54:44;;;;;;;8.48;1.45;;;;;;;;;;4991336;28;20144;-81
2023/05/16 02:57:11;;;;;;;14.80;1.05;;;;;;;;;;4979893;28;20065;-80
2023/05/16 02:59:37;;;;;;;11.85;2.20;;;;;;;;;;4961039;28;20046;-80
2023/05/16 03:02:03;;;;;;;8.90;1.10;;;;;;;;;;4969295;28;20058;-79
2023/05/16 03:04:30;;;;;;;11.73;0.88;;;;;;;;;;4994254;28;20066;-77
2023/05/16 03:06:56;;;;;;;13.10;1.20;;;;;;;;;;4993950;28;20553;-80
2023/05/16 03:09:22;;;;;;;8.50;1.45;;;;;;;;;;4995058;28;20056;-80
2023/05/16 03:11:48;;;;;;;13.00;1.80;;;;;;;;;;4997614;28;20872;-78
2023/05/16 03:14:14;;;;;;;7.85;1.00;;;;;;;;;;4980349;28;20184;-80
2023/05/16 03:16:42;;;;;;;14.68;2.47;;;;;;;;;;5009214;28;20057;-79
2023/05/16 03:19:09;;;;;;;11.63;0.75;;;;;;;;;;4976969;28;20050;-82
2023/05/16 03:21:35;;;;;;;15.38;0.90;;;;;;;;;;4993183;28;20525;-81
2023/05/16 03:24:04;;;;;;;6.93;0.77;;;5.10;99.90;;;;;;4994573;28;20068;-82
2023/05/16 03:26:30;;;;;;;11.05;0.82;;;;;;;;;;4995138;28;20049;-80
2023/05/16 03:28:56;;;;;;;11.13;0.68;;;;;;;;;;4995798;28;20042;-80
2023/05/16 03:31:22;;;;;;;8.75;0.77;;;;;;;;;;4995441;28;20092;-79
2023/05/16 03:33:48;;;;;;;12.02;1.70;;;;;;;;;;4999201;28;20089;-81
2023/05/16 03:36:15;;;;;;;13.77;1.83;;;;;;;;;;4995707;28;20595;-77
2023/05/16 03:38:41;;;;;;;9.70;2.03;;;;;;;;;;4994358;28;20646;-80
2023/05/16 03:41:07;;;;;;;14.68;0.93;;;;;;;;;;4969007;28;20053;-82
2023/05/16 03:43:33;;;;;;;11.32;1.63;;;;;;;;;;4994792;28;20054;-80
2023/05/16 03:46:01;;;;;;;13.90;0.80;;;5.20;99.90;;;;;;4993498;28;20069;-79
2023/05/16 03:48:27;;;;;;;17.42;1.48;;;;;;;;;;4994456;28;20210;-76
2023/05/16 03:50:53;;;;;;;13.50;1.20;;;;;;;;;;4995088;28;20103;-83
2023/05/16 03:53:19;;;;;;;8.27;0.73;;;;;;;;;;4993095;28;20057;-81
2023/05/16 03:55:45;;;;;;;11.73;1.20;;;;;;;;;;4994489;28;20080;-78
2023/05/16 03:58:11;;;;;;;8.13;0.82;;;;;;;;;;4997338;28;20052;-77
2023/05/16 04:00:37;;;;;;;9.20;1.55;;;5.10;99.90;;;;;;4973429;28;20692;-77
2023/05/16 04:03:03;;;;;;;13.48;1.02;;;;;;;;;;4994860;28;20060;-81
2023/05/16 04:05:29;;;;;;;10.90;1.25;;;;;;;;;;4980703;28;20676;-80
2023/05/16 04:07:56;;;;;;;12.80;0.93;;;;;;;;;;4997244;28;20055;-79
2023/05/16 04:10:22;;;;;;;6.63;0.93;;;;;;;;;;4993066;28;20604;-81
2023/05/16 04:12:48;;;;;;;12.95;1.15;;;;;;;;;;4988620;28;20077;-81
2023/05/16 04:15:14;;;;;;;7.90;1.20;;;;;;;;;;4993009;28;20050;-82
2023/05/16 04:17:40;;;;;;;15.05;1.38;;;;;;;;;;4992597;28;20048;-79
2023/05/16 04:20:06;;;;;;;18.02;1.60;;;;;;;;;;4994284;28;20053;-78
2023/05/16 04:22:32;;;;;;;9.75;2.03;;;;;;;;;;4996932;28;20057;-78
2023/05/16 04:24:58;;;;;;;7.45;0.90;;;;;;;;;;4997529;28;20066;-78
2023/05/16 04:27:26;;;;;;;7.00;1.30;;;;;;;;;;4997702;28;20045;-80
2023/05/16 04:29:52;;;;;;;11.95;1.45;;;;;;;;;;4996538;28;20045;-83
2023/05/16 04:32:18;;;;;;;10.50;0.93;;;;;;;;;;4978423;28;20076;-79
2023/05/16 04:34:45;;;;;;;14.88;1.65;;;;;;;;;;4996056;28;20044;-83
2023/05/16 04:37:11;;;;;;;10.05;1.15;;;;;;;;;;4994893;28;20124;-79
2023/05/16 04:39:38;;;;;;;6.38;0.95;;;;;;;;;;4997019;28;20057;-78
2023/05/16 04:42:07;;;;;;;8.30;1.08;;;;;;;;;;4992864;28;20204;-81
2023/05/16 04:44:33;;;;;;;11.45;1.15;;;;;;;;;;4998796;28;20041;-80
2023/05/16 04:46:59;;;;;;;16.40;1.92;;;;;;;;;;4994934;28;20045;-81
2023/05/16 04:49:25;;;;;;;15.30;2.10;;;;;;;;;;4996879;28;20160;-79
2023/05/16 04:51:51;;;;;;;8.02;1.20;;;;;;;;;;4996710;28;20140;-79
2023/05/16 04:54:18;;;;;;;12.30;1.92;;;;;;;;;;4996777;28;20049;-78
2023/05/16 04:56:44;;;;;;;12.55;1.52;;;;;;;;;;4972163;28;20057;-79
2023/05/16 04:59:10;;;;;;;11.10;2.38;;;;;;;;;;4974857;28;20057;-77
2023/05/16 05:01:36;;;;;;;11.05;0.95;;;;;;;;;;4970388;28;20060;-82
2023/05/16 05:04:02;;;;;;;10.43;1.88;;;;;;;;;;4995002;28;20124;-80
2023/05/16 05:06:28;;;;;;;7.53;0.93;;;;;;;;;;4994400;28;20053;-79
2023/05/16 05:08:54;;;;;;;9.35;1.70;;;;;;;;;;4980779;28;20500;-80
2023/05/16 05:11:22;;;;;;;11.10;1.00;;;;;;;;;;4998467;28;20124;-81
2023/05/16 05:13:48;;;;;;;12.70;1.80;;;;;;;;;;4994551;28;20053;-79
2023/05/16 05:16:14;;;;;;;10.98;1.35;;;;;;;;;;4981348;28;20100;-81
2023/05/16 05:18:40;;;;;;;8.73;1.45;;;;;;;;;;4993797;28;20055;-81
2023/05/16 05:21:06;;;;;;;8.13;1.10;;;;;;;;;;4980874;28;20119;-80
2023/05/16 05:23:33;;;;;;;10.93;1.65;;;;;;;;;;4972717;28;20070;-80
2023/05/16 05:26:01;;;;;;;9.23;2.28;;;;;;;;;;4954360;28;20051;-82
2023/05/16 05:28:27;;;;;;;12.18;0.98;;;;;;;;;;4963336;28;20054;-78
2023/05/16 05:30:53;;;;;;;8.73;0.90;;;;;;;;;;4941488;28;20054;-77
2023/05/16 05:33:19;;;;;;;8.93;1.27;;;;;;;;;;4965120;28;20093;-81
2023/05/16 05:35:45;;;;;;;9.85;1.38;;;;;;;;;;4970326;28;20053;-79
2023/05/16 05:38:11;;;;;;;11.10;0.70;;;;;;;;;;4966103;28;20138;-80
2023/05/16 05:40:37;;;;;;;5.72;0.90;;;;;;;;;;4962728;28;20141;-84
2023/05/16 05:43:03;;;;;;;9.93;1.00;;;;;;;;;;4965856;28;20073;-78
2023/05/16 05:45:30;;;;;;;10.85;1.73;;;;;;;;;;4972320;28;20134;-79
2023/05/16 05:47:56;;;;;;;11.02;1.15;;;;;;;;;;4972724;28;20075;-83
2023/05/16 05:50:22;;;;;;;7.60;0.55;;;11.80;99.90;;;;;;4944544;28;20070;-81
2023/05/16 05:52:49;;;;;;;7.63;1.02;;;;;;;;;;4963589;28;20104;-78
2023/05/16 05:55:15;;;;;;;7.45;1.13;;;;;;;;;;4958957;28;20054;-80
2023/05/16 05:57:41;;;;;;;7.85;1.17;;;;;;;;;;4964461;28;20077;-80
2023/05/16 06:00:08;;;;;;;13.75;0.93;;;;;;;;;;4959338;28;20062;-86
2023/05/16 06:02:34;;;;;;;9.70;1.38;;;;;;;;;;4976022;28;20047;-81
2023/05/16 06:05:01;;;;;;;8.80;0.70;;;;;;;;;;4960316;28;20086;-78
2023/05/16 06:07:27;;;;;;;9.48;1.10;;;;;;;;;;4973393;28;20549;-81
2023/05/16 06:09:53;;;;;;;10.13;1.00;;;;;;;;;;4968990;28;20053;-78
2023/05/16 06:12:19;;;;;;;11.15;0.98;;;;;;;;;;4965236;28;20062;-87
2023/05/16 06:14:45;;;;;;;7.05;0.50;;;;;;;;;;4968158;28;20058;-83
2023/05/16 06:17:11;;;;;;;7.57;0.43;;;;;;;;;;4946719;28;20551;-82
2023/05/16 06:19:37;;;;;;;5.50;0.40;;;;;;;;;;4976510;28;20135;-83
2023/05/16 06:22:03;;;;;;;5.32;0.70;;;;;;;;;;4967160;28;20057;-76
2023/05/16 06:24:29;;;;;;;7.95;0.73;;;;;;;;;;4990073;28;20180;-83
2023/05/16 06:26:55;;;;;;;8.77;1.10;;;;;;;;;;4991648;28;20243;-81
2023/05/16 06:29:22;;;;;;;7.72;0.70;;;;;;;;;;4988496;28;20054;-80
2023/05/16 06:31:48;;;;;;;7.95;0.68;;;;;;;;;;4988683;28;20102;-83
2023/05/16 06:34:15;;;;;;;6.30;0.47;;;;;;;;;;4992187;28;20062;-86
2023/05/16 06:36:41;;;;;;;8.93;1.50;;;;;;;;;;4997013;28;20060;-81
2023/05/16 06:39:07;;;;;;;11.82;1.13;;;;;;;;;;4965364;28;20057;-83
2023/05/16 06:41:33;;;;;;;10.70;1.13;;;;;;;;;;4996514;28;20541;-79
2023/05/16 06:44:00;;;;;;;6.90;1.08;;;14.90;94.80;;;;;;4990022;28;20290;-83
2023/05/16 06:46:26;;;;;;;7.10;0.50;;;;;;;;;;4998046;28;20081;-82
2023/05/16 06:48:52;;;;;;;5.97;0.50;;;;;;;;;;4995948;28;20061;-82
2023/05/16 06:51:19;;;;;;;10.98;0.55;;;;;;;;;;4990282;28;20466;-77
2023/05/16 06:53:45;;;;;;;6.10;0.50;;;;;;;;;;4995406;28;20662;-76
2023/05/16 06:56:11;;;;;;;7.13;0.85;;;;;;;;;;4993880;28;20582;-82
2023/05/16 06:58:37;;;;;;;4.38;0.50;;;;;;;;;;4962399;28;20535;-81
2023/05/16 07:01:03;;;;;;;8.00;1.00;;;;;;;;;;4993100;28;20192;-84
2023/05/16 07:03:30;;;;;;;9.02;0.50;;;;;;;;;;4988669;28;20487;-82
2023/05/16 07:05:57;;;;;;;5.28;0.50;;;;;;;;;;4994191;28;20054;-82
2023/05/16 07:08:23;;;;;;;5.57;0.55;;;;;;;;;;4993084;28;20137;-81
2023/05/16 07:10:49;;;;;;;8.60;1.20;;;;;;;;;;4990223;28;20049;-87
2023/05/16 07:13:15;;;;;;;11.55;0.75;;;;;;;;;;4989538;28;20060;-86
2023/05/16 07:15:41;;;;;;;6.38;0.40;;;;;;;;;;4975333;28;20637;-88
2023/05/16 07:18:07;;;;;;;4.45;0.50;;;;;;;;;;4992420;28;20091;-82
2023/05/16 07:20:33;;;;;;;7.10;0.30;;;;;;;;;;4991194;28;20050;-83
2023/05/16 07:23:00;;;;;;;4.18;0.28;;;;;;;;;;4992253;28;20072;-85
2023/05/16 07:25:26;;;;;;;3.78;0.25;;;;;;;;;;4975116;28;20566;-79
2023/05/16 07:27:52;;;;;;;1.90;0.28;;;;;;;;;;4997702;28;20046;-78
2023/05/16 07:30:19;;;;;;;4.35;0.30;;;;;;;;;;4989858;28;20127;-80
2023/05/16 07:32:45;;;;;;;4.45;0.28;;;;;;;;;;4992678;28;20076;-80
2023/05/16 07:35:12;;;;;;;3.10;0.40;;;24.10;68.40;;;;;;4993783;28;20135;-82
2023/05/16 07:37:40;;;;;;;3.63;0.43;;;25.70;73.30;;;;;;4976608;28;20051;-80
2023/05/16 07:40:07;;;;;;;4.35;0.60;;;25.80;65.50;;;;;;4981715;28;20049;-83
2023/05/16 07:42:32;;;;;;;2.72;0.40;;;26.00;62.50;;;;;;4994205;28;20209;-80
2023/05/16 07:44:58;;;;;;;5.47;0.57;;;26.50;61.20;;;;;;4993160;28;20443;-80
2023/05/16 07:47:24;;;;;;;4.70;0.38;;;26.60;60.60;;;;;;4991198;28;20177;-84
2023/05/16 07:49:50;;;;;;;4.45;0.30;;;;;;;;;;4994834;28;20045;-83
2023/05/16 07:52:16;;;;;;;4.47;0.50;;;25.80;60.50;;;;;;4976077;28;20054;-80
2023/05/16 07:54:42;;;;;;;3.53;0.30;;;25.70;57.60;;;;;;4991354;28;20053;-80
2023/05/16 07:57:07;;;;;;;3.28;0.30;;;25.50;63.40;;;;;;4988126;28;20054;-83
2023/05/16 07:59:34;;;;;;;3.80;0.40;;;;;;;;;;4993580;28;20056;-79
2023/05/16 08:02:00;;;;;;;5.38;0.30;;;27.20;62.80;;;;;;4973639;28;20145;-78
2023/05/16 08:04:26;;;;;;;5.72;0.40;;;;;;;;;;4996652;28;20568;-77
2023/05/16 08:06:52;;;;;;;4.53;0.30;;;;;;;;;;4995235;28;20041;-78
2023/05/16 08:09:18;;;;;;;3.90;0.47;;;;;;;;;;4979378;28;20100;-81
2023/05/16 08:11:45;;;;;;;5.00;0.50;;;26.00;58.70;;;;;;4996033;28;20115;-81
2023/05/16 08:14:10;;;;;;;6.03;0.50;;;26.00;55.10;;;;;;4994422;28;20049;-78
2023/05/16 08:16:37;;;;;;;5.63;0.70;;;;;;;;;;4985556;28;20046;-81
2023/05/16 08:19:06;;;;;;;4.88;0.50;;;;;;;;;;4979014;28;21643;-81
2023/05/16 08:21:33;;;;;;;3.72;0.57;;;;;;;;;;4978892;28;20064;-77
2023/05/16 08:23:59;;;;;;;6.47;0.70;;;;;;;;;;4979085;28;20077;-79
2023/05/16 08:26:26;;;;;;;5.80;0.60;;;;;;;;;;4991130;28;20053;-78
2023/05/16 08:28:52;;;;;;;3.78;0.60;;;;;;;;;;4994911;28;20397;-79
2023/05/16 08:31:18;;;;;;;9.38;0.60;;;;;;;;;;4998633;28;20459;-77
2023/05/16 08:33:44;;;;;;;4.28;0.40;;;;;;;;;;4997550;28;20057;-83
2023/05/16 08:36:10;;;;;;;5.30;0.47;;;;;;;;;;4995100;28;20100;-77
2023/05/16 08:38:36;;;;;;;9.75;1.08;;;;;;;;;;4996040;28;20046;-81
2023/05/16 08:41:02;;;;;;;3.58;0.40;;;29.90;54.30;;;;;;4991633;28;20069;-82
2023/05/16 08:43:28;;;;;;;5.05;0.45;;;29.40;50.20;;;;;;4989942;28;20066;-85
2023/05/16 08:45:54;;;;;;;2.95;0.63;;;30.20;51.20;;;;;;4994179;28;20045;-78
2023/05/16 08:48:23;;;;;;;3.58;0.38;;;30.40;48.50;;;;;;4995906;28;20061;-83
2023/05/16 08:50:49;;;;;;;4.60;0.45;;;30.80;46.50;;;;;;4992030;28;20111;-77
2023/05/16 08:53:21;;;;;;;7.60;0.40;;;30.00;46.00;;;;;;4988145;28;20633;-78
2023/05/16 08:55:48;;;;;;;6.05;1.15;;;28.80;45.50;;;;;;4984303;28;20503;-79
2023/05/16 08:58:15;;;;;;;5.78;1.05;;;25.40;50.90;;;;;;4964148;28;22827;-82
2023/05/16 09:00:41;;;;;;;4.72;0.30;;;25.50;47.80;;;;;;4951305;28;20054;-77
2023/05/16 09:03:07;;;;;;;2.70;0.20;;;;;;;;;;4941868;28;20152;-86
2023/05/16 09:05:34;;;;;;;3.33;0.20;;;;;;;;;;4971803;28;20065;-80
2023/05/16 09:08:00;;;;;;;2.40;0.20;;;;;;;;;;4979256;28;20038;-77
2023/05/16 09:10:26;;;;;;;2.17;0.20;;;;;;;;;;4975570;28;20100;-82
2023/05/16 09:12:52;;;;;;;1.88;0.13;;;;;;;;;;4978625;28;20095;-80
2023/05/16 09:15:22;;;;;;;1.42;0.10;;;23.50;58.60;;;;;;4976193;28;20044;-85
2023/05/16 09:17:48;;;;;;;3.20;0.52;;;;;;;;;;4978930;28;20049;-79
2023/05/16 09:20:19;;;;;;;2.97;0.30;;;25.70;56.70;;;;;;4962135;28;20419;-81
2023/05/16 09:22:58;;;;;;;3.73;0.30;;;26.80;55.00;;;;;;4964286;28;20868;-81
2023/05/16 09:25:29;;;;;;;4.80;0.50;;;27.70;60.30;;;;;;4980333;28;20046;-81
2023/05/16 09:27:56;;;;;;;3.73;0.57;;;27.80;52.80;;;;;;4980369;28;20080;-83
2023/05/16 09:30:26;;;;;;;4.05;0.60;;;27.50;51.10;;;;;;4964360;28;20052;-84
2023/05/16 09:32:52;;;;;;;3.83;0.60;;;;;;;;;;4980866;28;20038;-83
2023/05/16 09:35:20;;;;;;;5.88;0.45;;;26.10;54.60;;;;;;4981546;28;20037;-89
2023/05/16 09:37:51;;;;;;;5.88;0.70;;;24.70;55.30;;;;;;4981485;28;20518;-79
2023/05/16 09:40:21;;;;;;;5.50;0.63;;;25.70;53.80;;;;;;4981522;28;20136;-79
2023/05/16 09:42:47;;;;;;;5.90;0.43;;;;;;;;;;4963836;28;20178;-87
2023/05/16 09:45:13;;;;;;;5.15;0.30;;;;;;;;;;4964309;28;20049;-87
2023/05/16 09:47:46;;;;;;;6.55;0.70;;;;;;;;;;4983143;28;20083;-79
2023/05/16 09:50:15;;;;;;;4.45;0.50;;;25.00;53.50;;;;;;4964481;28;20053;-82
2023/05/16 09:52:42;;;;;;;5.25;0.43;;;25.40;52.70;;;;;;4980578;28;20304;-82
2023/05/16 09:55:09;;;;;;;3.45;0.40;;;;;;;;;;4983304;28;20129;-87
2023/05/16 09:57:42;;;;;;;8.10;0.30;;;26.90;52.80;;;;;;4968512;28;20061;-83
2023/05/16 10:00:10;;;;;;;4.97;0.50;;;26.90;56.10;;;;;;4967346;28;20100;-78
2023/05/16 10:02:40;;;;;;;3.67;0.40;;;27.30;48.90;;;;;;4981679;28;20689;-78
2023/05/16 10:05:06;;;;;;;5.47;0.30;;;;;;;;;;4964575;28;20760;-84
2023/05/16 10:07:33;;;;;;;4.53;0.43;;;;;;;;;;4972386;28;20155;-81
2023/05/16 10:10:04;;;;;;;4.25;0.30;;;27.30;46.20;;;;;;4956190;28;20880;-87
2023/05/16 10:12:31;;;;;;;4.80;0.57;;;;;;;;;;4965203;28;20099;-86
2023/05/16 10:14:57;;;;;;;3.20;0.40;;;;;;;;;;4958394;28;21243;-83
2023/05/16 10:17:26;;;;;;;3.78;0.50;;;27.00;45.10;;;;;;4980039;28;20053;-86
2023/05/16 10:19:53;;;;;;;5.55;0.40;;;27.10;45.00;;;;;;4963890;28;20150;-76
2023/05/16 10:22:22;;;;;;;3.25;0.20;;;27.30;44.70;;;;;;4946763;28;20151;-84
2023/05/16 10:25:06;;;;;;;4.88;0.32;;;27.40;44.50;;;;;;4941392;28;20538;-85
2023/05/16 10:27:33;;;;;;;5.10;0.52;;;;;;;;;;4975074;28;20607;-81
2023/05/16 10:29:59;;;;;;;2.92;0.93;;;;;;;;;;4957726;28;20111;-82
2023/05/16 10:32:25;;;;;;;5.00;0.35;;;;;;;;;;4960421;28;20065;-80
2023/05/16 10:34:54;;;;;;;7.32;0.47;;;;;;;;;;4957509;28;20387;-83
2023/05/16 10:37:20;;;;;;;4.60;0.40;;;;;;;;;;4972815;28;20581;-81
2023/05/16 10:39:46;;;;;;;2.28;0.40;;;;;;;;;;4972766;28;20054;-79
2023/05/16 10:42:17;;;;;;;3.08;0.45;;;;;;;;;;4968286;28;20934;-77
2023/05/16 10:44:43;;;;;;;6.47;0.30;;;;;;;;;;4966808;28;20068;-77
2023/05/16 10:47:10;;;;;;;3.83;0.40;;;;;;;;;;4946852;28;20290;-77
2023/05/16 10:49:40;;;;;;;4.93;0.60;;;23.80;54.20;;;;;;4959547;28;20137;-78
2023/05/16 10:52:06;;;;;;;5.63;0.47;;;;;;;;;;4957627;28;20071;-81
2023/05/16 10:54:38;;;;;;;5.57;0.70;;;20.60;58.60;;;;;;4933785;28;20443;-78
2023/05/16 10:57:24;;;;;;;7.10;1.00;;;20.50;56.40;;;;;;4960449;28;20057;-82
2023/05/16 10:59:51;;;;;;;4.78;0.30;;;19.80;59.10;;;;;;4966176;28;20225;-82
2023/05/16 11:02:39;;;;;;;3.28;0.40;;;19.10;60.30;;;;;;4972952;28;20057;-81
2023/05/16 11:05:06;;;;;;;9.45;0.57;;;18.70;62.70;;;;;;4977812;28;20457;-81
2023/05/16 11:07:33;;;;;;;9.60;1.83;;;18.60;64.10;;;;;;4981013;28;20066;-76
2023/05/16 11:10:05;;;;;;;4.43;0.57;;;18.40;64.10;;;;;;4950279;28;20137;-83
2023/05/16 11:12:42;;;;;;;5.07;1.02;;;18.30;65.00;;;;;;4940824;28;22191;-81
2023/05/16 11:15:19;;;;;;;8.32;0.40;;;18.30;66.00;;;;;;4931282;28;20458;-79
2023/05/16 11:17:46;;;;;;;4.82;0.40;;;;;;;;;;4958875;28;20174;-80
2023/05/16 11:20:30;;;;;;;4.07;0.30;;;17.90;65.70;;;;;;4958398;28;20836;-83
2023/05/16 11:23:20;;;;;;;4.63;0.80;;;17.70;71.00;;;;;;4968320;28;20450;-84
2023/05/16 11:25:55;;;;;;;7.05;0.30;;;15.40;62.90;;;;;;4962409;28;21916;-77
2023/05/16 11:28:25;;;;;;;4.50;1.25;;;17.30;64.30;;;;;;4963936;28;20484;-84
2023/05/16 11:30:58;;;;;;;8.13;0.65;;;17.20;64.50;;;;;;4966785;28;21949;-81
2023/05/16 11:33:24;;;;;;;6.78;0.60;;;;;;;;;;4961351;28;20719;-81
2023/05/16 11:36:05;;;;;;;4.60;0.30;;;17.30;65.30;;;;;;4958903;28;20164;-81
2023/05/16 11:38:32;;;;;;;5.32;0.50;;;;;;;;;;4950198;28;20057;-79
2023/05/16 11:41:05;;;;;;;6.55;0.40;;;17.50;64.50;;;;;;4959443;28;20515;-82
2023/05/16 11:43:40;;;;;;;8.65;0.47;;;17.50;64.10;;;;;;4973318;28;20628;-81
2023/05/16 11:46:06;;;;;;;5.30;0.60;;;;;;;;;;4976889;28;20198;-75
2023/05/16 11:48:33;;;;;;;5.72;0.65;;;;;;;;;;4967985;28;20059;-82
2023/05/16 11:50:58;;;;;;;3.75;1.30;;;17.20;70.70;;;;;;4982330;28;20059;-76
2023/05/16 11:53:25;;;;;;;5.57;0.68;;;;;;;;;;4984194;28;20057;-77
2023/05/16 11:55:51;;;;;;;4.55;0.50;;;;;;;;;;4971584;28;20058;-80
2023/05/16 11:58:18;;;;;;;3.58;0.47;;;17.50;65.50;;;;;;4982428;28;20053;-81
2023/05/16 12:00:50;;;;;;;4.93;0.73;;;18.10;71.60;;;;;;4981323;28;20511;-81
2023/05/16 12:03:18;;;;;;;7.30;1.95;;;18.10;65.00;;;;;;4984771;28;20072;-79
2023/05/16 12:05:52;;;;;;;8.48;1.05;;;18.20;67.50;;;;;;4983402;28;20054;-77
2023/05/16 12:08:20;;;;;;;3.70;0.57;;;18.00;67.90;;;;;;4958340;28;20045;-78
2023/05/16 12:10:46;;;;;;;6.60;1.25;;;;;;;;;;4983075;28;20132;-87
2023/05/16 12:13:12;;;;;;;13.25;1.25;;;;;;;;;;4978001;28;20052;-80
2023/05/16 12:15:38;;;;;;;5.95;0.88;;;;;;;;;;4978570;28;20308;-78
2023/05/16 12:18:05;;;;;;;6.45;0.95;;;;;;;;;;4968767;28;20053;-83
2023/05/16 12:20:32;;;;;;;6.93;0.70;;;;;;;;;;4982080;28;20619;-83
2023/05/16 12:22:58;;;;;;;4.47;0.70;;;;;;;;;;4986448;28;20072;-79
2023/05/16 12:25:29;;;;;;;7.97;1.17;;;18.00;65.10;;;;;;4978699;28;20057;-79
2023/05/16 12:27:57;;;;;;;8.30;1.10;;;18.00;65.40;;;;;;4981256;28;20640;-83
2023/05/16 12:30:25;;;;;;;6.32;1.20;;;18.20;64.80;;;;;;4979528;28;20053;-84
2023/05/16 12:33:02;;;;;;;3.78;0.82;;;18.70;69.80;;;;;;5006810;28;20577;-79
2023/05/16 12:35:32;;;;;;;5.80;1.10;;;;;;;;;;4973483;28;20318;-81
2023/05/16 12:37:58;;;;;;;6.50;0.73;;;;;;;;;;4975851;28;20052;-81
2023/05/16 12:40:28;;;;;;;5.88;1.63;;;18.20;64.40;;;;;;4978205;28;20112;-81
2023/05/16 12:42:55;;;;;;;6.82;1.08;;;;;;;;;;4959111;28;20065;-87
2023/05/16 12:45:22;;;;;;;4.05;1.00;;;18.00;64.10;;;;;;4971748;28;20060;-76
2023/05/16 12:47:48;;;;;;;5.78;1.20;;;;;;;;;;4959656;28;20057;-78
2023/05/16 12:50:18;;;;;;;4.40;1.17;;;;;;;;;;4969746;28;20187;-81
2023/05/16 12:52:50;;;;;;;4.60;1.00;;;18.20;63.70;;;;;;4974763;28;20045;-83
2023/05/16 12:55:17;;;;;;;;;;;18.20;64.40;;;;;;4950296;28;20041;-82
2023/05/16 12:57:44;;;;;;;6.40;1.45;;;18.30;63.60;;;;;;4976069;28;19928;-76
2023/05/16 13:00:11;;;;;;;8.98;1.23;;;18.00;65.80;;;;;;4974647;28;20065;-80
2023/05/16 13:02:37;;;;;;;5.75;1.38;;;;;;;;;;4982396;28;21090;-79
2023/05/16 13:05:06;;;;;;;8.07;1.30;;;17.60;65.00;;;;;;4975559;28;20050;-78
2023/05/16 13:07:32;;;;;;;6.50;1.73;;;;;;;;;;4959954;28;21148;-81
2023/05/16 13:09:59;;;;;;;6.72;1.40;;;;;;;;;;4983850;28;20141;-84
2023/05/16 13:12:26;;;;;;;6.28;1.20;;;;;;;;;;4982590;28;20098;-80
2023/05/16 13:14:52;;;;;;;7.07;1.48;;;17.10;65.20;;;;;;4979671;28;20610;-75
2023/05/16 13:17:18;;;;;;;8.57;1.33;;;;;;;;;;4951665;28;20077;-76
2023/05/16 13:19:45;;;;;;;5.22;1.05;;;;;;;;;;4995789;28;21498;-80
2023/05/16 13:22:11;;;;;;;8.70;1.50;;;;;;;;;;4993435;28;20064;-81
2023/05/16 13:24:37;;;;;;;5.72;1.17;;;;;;;;;;4964231;28;20241;-73
2023/05/16 13:27:03;;;;;;;6.20;1.20;;;;;;;;;;4976740;28;20507;-79
2023/05/16 13:29:29;;;;;;;5.05;1.10;;;;;;;;;;4978310;28;20057;-79
2023/05/16 13:31:56;;;;;;;5.05;1.20;;;;;;;;;;4961716;28;20108;-75
2023/05/16 13:34:22;;;;;;;9.38;2.10;;;;;;;;;;4981906;28;20061;-82
2023/05/16 13:36:48;;;;;;;3.85;1.33;;;;;;;;;;4968721;28;20049;-78
2023/05/16 13:39:14;;;;;;;7.10;1.95;;;;;;;;;;4982427;28;20053;-82
2023/05/16 13:41:41;;;;;;;5.60;1.60;;;;;;;;;;4967601;28;20674;-81
2023/05/16 13:44:07;;;;;;;4.43;1.50;;;;;;;;;;4965767;28;20086;-79
2023/05/16 13:46:33;;;;;;;5.20;1.70;;;;;;;;;;4979087;28;20636;-75
2023/05/16 13:48:59;;;;;;;8.50;2.00;;;;;;;;;;4973664;28;20057;-79
2023/05/16 13:51:26;;;;;;;5.70;1.52;;;;;;;;;;4982796;28;20779;-81
2023/05/16 13:53:52;;;;;;;5.07;1.40;;;;;;;;;;4984063;28;20056;-79
2023/05/16 13:56:18;;;;;;;7.55;1.67;;;;;;;;;;4995128;28;20056;-79
2023/05/16 13:58:44;;;;;;;5.22;1.92;;;;;;;;;;4969775;28;20057;-77
2023/05/16 14:01:12;;;;;;;5.80;1.70;;;;;;;;;;4980351;28;20049;-78
2023/05/16 14:03:38;;;;;;;10.77;2.13;;;;;;;;;;4976410;28;20061;-80